Time;durP1;ratioP1;P1;durP2;ratioP2;P2;SDS_P1;SDS_P2;PMS_P1;PMS_P2;Temp;Humidity;BMP_temperature;BMP_pressure;BME280_temperature;BME280_humidity;BME280_pressure;Samples;Min_cycle;Max_cycle;Signal;HPM_P1;HPM_P2
2021/06/19 00:01:42;;;;;;;8.93;7.75;;;;;;;22.62;58.47;96081.50;5093042;28;20052;-79
2021/06/19 00:04:10;;;;;;;9.13;7.78;;;;;;;22.60;58.65;96078.34;5092384;28;20052;-79
2021/06/19 00:06:38;;;;;;;11.73;8.15;;;;;;;22.57;58.81;96079.13;5092977;28;20048;-78
2021/06/19 00:09:05;;;;;;;10.70;8.43;;;;;;;22.58;58.92;96077.94;5092236;28;20044;-79
2021/06/19 00:11:31;;;;;;;9.02;7.97;;;;;;;22.56;58.87;96074.78;5091681;28;20044;-78
2021/06/19 00:13:58;;;;;;;11.68;8.43;;;;;;;22.52;59.03;96076.78;5092882;28;20415;-79
2021/06/19 00:16:24;;;;;;;12.20;8.50;;;;;;;22.48;59.21;96067.66;5092003;28;20040;-79
2021/06/19 00:18:50;;;;;;;14.60;8.65;;;;;;;22.43;59.25;96068.06;5092486;28;20043;-79
2021/06/19 00:21:17;;;;;;;12.98;8.75;;;;;;;22.40;59.47;96069.69;5074150;28;20522;-78
2021/06/19 00:23:45;;;;;;;11.95;8.65;;;;;;;22.36;59.69;96063.34;5092391;28;20044;-79
2021/06/19 00:26:11;;;;;;;10.30;8.90;;;;;;;22.35;59.79;96066.53;5091645;28;20048;-79
2021/06/19 00:28:38;;;;;;;11.77;9.30;;;;;;;22.34;60.27;96070.47;5090516;28;20047;-78
2021/06/19 00:31:04;;;;;;;11.32;8.93;;;;;;;22.32;60.29;96072.88;5092039;28;20054;-79
2021/06/19 00:33:31;;;;;;;12.05;9.30;;;;;;;22.31;60.37;96077.63;5092375;28;20067;-79
2021/06/19 00:35:58;;;;;;;13.30;9.68;;;;;;;22.29;60.58;96079.22;5092332;28;20080;-79
2021/06/19 00:38:25;;;;;;;12.38;9.85;;;;;;;22.28;60.87;96074.88;5091786;28;20047;-79
2021/06/19 00:40:52;;;;;;;17.02;10.18;;;;;;;22.30;61.06;96083.59;5092071;28;20525;-79
2021/06/19 00:43:19;;;;;;;12.98;9.77;;;;;;;22.33;61.00;96082.78;5091797;28;20052;-79
2021/06/19 00:45:45;;;;;;;15.77;10.68;;;;;;;22.35;60.88;96085.97;5092227;28;20047;-79
2021/06/19 00:48:13;;;;;;;12.52;10.18;;;;;;;22.35;60.91;96088.72;5091161;28;20055;-79
2021/06/19 00:50:41;;;;;;;13.75;9.77;;;;;;;22.38;61.32;96093.47;5092043;28;20063;-79
2021/06/19 00:53:08;;;;;;;11.63;10.05;;;;;;;22.42;61.41;96088.69;5091434;28;20502;-79
2021/06/19 00:55:35;;;;;;;14.25;9.77;;;;;;;22.46;61.48;96100.59;5091951;28;20047;-79
2021/06/19 00:58:04;;;;;;;11.55;9.93;;;;;;;22.47;61.39;96099.38;5091606;28;20048;-80
2021/06/19 01:00:31;;;;;;;13.38;9.20;;;;;;;22.47;61.61;96101.38;5091412;28;20036;-79
2021/06/19 01:02:59;;;;;;;13.68;10.05;;;;;;;22.43;61.85;96101.38;5091749;28;20526;-79
2021/06/19 01:05:27;;;;;;;14.40;9.38;;;;;;;22.44;61.78;96108.50;5091299;28;20051;-79
2021/06/19 01:07:56;;;;;;;11.77;9.77;;;;;;;22.44;62.00;96107.69;5091541;28;20054;-78
2021/06/19 01:10:22;;;;;;;15.65;10.15;;;;;;;22.42;61.71;96110.88;5091268;28;20055;-79
2021/06/19 01:12:49;;;;;;;12.35;9.77;;;;;;;22.41;62.08;96109.31;5091585;28;20498;-78
2021/06/19 01:15:17;;;;;;;17.45;10.95;;;;;;;22.39;62.64;96106.94;5091139;28;20048;-78
2021/06/19 01:17:44;;;;;;;14.73;9.98;;;;;;;22.39;62.75;96115.28;5091689;28;20050;-78
2021/06/19 01:20:13;;;;;;;14.10;9.70;;;;;;;22.37;62.19;96114.88;5091021;28;20044;-78
2021/06/19 01:22:42;;;;;;;14.48;9.55;;;;;;;22.37;62.27;96114.06;5091236;28;20047;-80
2021/06/19 01:25:16;;;;;;;11.13;9.38;;;;;;;22.39;61.48;96122.78;5091077;28;20048;-78
2021/06/19 01:27:42;;;;;;;11.75;10.00;;;;;;;22.35;61.22;96130.34;5091677;28;20047;-78
2021/06/19 01:30:10;;;;;;;13.35;9.93;;;;;;;22.28;61.03;96133.13;5073177;28;20384;-78
2021/06/19 01:32:39;;;;;;;13.35;10.10;;;;;;;22.19;61.53;96128.00;5070989;28;20397;-79
2021/06/19 01:35:07;;;;;;;14.32;9.85;;;;;;;22.17;61.95;96126.81;5070711;28;20052;-79
2021/06/19 01:37:34;;;;;;;13.30;9.80;;;;;;;22.17;62.32;96129.56;5071199;28;20052;-78
2021/06/19 01:40:06;;;;;;;14.90;10.38;;;;;;;22.17;61.25;96138.69;5071075;28;20507;-78
2021/06/19 01:42:34;;;;;;;12.95;10.13;;;;;;;22.10;60.77;96152.53;5070974;28;20037;-79
2021/06/19 01:45:01;;;;;;;12.43;9.43;;;;;;;22.07;60.41;96140.25;5071045;28;20044;-78
2021/06/19 01:47:29;;;;;;;11.50;9.85;;;;;;;22.04;61.04;96146.59;5070710;28;20040;-78
2021/06/19 01:49:55;;;;;;;15.02;10.23;;;;;;;22.04;61.70;96129.97;5071063;28;20045;-80
2021/06/19 01:52:22;;;;;;;13.60;10.13;;;;;;;22.06;61.65;96132.34;5070661;28;20073;-77
2021/06/19 01:54:48;;;;;;;11.95;9.07;;;;;;;22.07;61.49;96137.47;5071168;28;20048;-78
2021/06/19 01:57:15;;;;;;;13.57;9.68;;;;;;;22.09;61.70;96137.88;5070666;28;20053;-79
2021/06/19 01:59:42;;;;;;;11.95;9.63;;;;;;;22.11;61.80;96129.97;5070788;28;20047;-79
2021/06/19 02:02:09;;;;;;;11.82;9.43;;;;;;;22.10;61.46;96124.81;5070583;28;20049;-78
2021/06/19 02:04:36;;;;;;;13.45;9.50;;;;;;;22.05;61.23;96125.22;5071106;28;20045;-79
2021/06/19 02:07:03;;;;;;;13.38;9.38;;;;;;;22.02;61.34;96121.22;5070639;28;20052;-79
2021/06/19 02:09:29;;;;;;;15.88;9.68;;;;;;;22.01;61.33;96119.66;5070791;28;20041;-80
2021/06/19 02:11:57;;;;;;;12.60;10.13;;;;;;;21.95;61.69;96126.81;5070831;28;20055;-80
2021/06/19 02:14:23;;;;;;;11.63;9.10;;;;;;;21.90;61.71;96129.97;5070322;28;20491;-80
2021/06/19 02:16:51;;;;;;;12.10;10.05;;;;;;;21.83;62.06;96136.31;5070889;28;20045;-79
2021/06/19 02:19:17;;;;;;;12.38;9.88;;;;;;;21.82;62.23;96139.47;5070133;28;20044;-80
2021/06/19 02:21:44;;;;;;;13.05;9.88;;;;;;;21.79;62.40;96137.50;5070890;28;20178;-79
2021/06/19 02:24:11;;;;;;;12.70;9.98;;;;;;;21.74;62.67;96137.91;5070319;28;20061;-78
2021/06/19 02:26:37;;;;;;;14.45;10.55;;;;;;;21.67;62.94;96143.44;5070703;28;20040;-81
2021/06/19 02:29:04;;;;;;;16.77;10.18;;;;;;;21.62;63.01;96139.88;5070153;28;20045;-80
2021/06/19 02:31:30;;;;;;;13.60;10.98;;;;;;;21.59;63.31;96126.00;5070714;28;20044;-80
2021/06/19 02:33:58;;;;;;;12.02;10.05;;;;;;;21.54;63.50;96135.50;5071536;28;20045;-80
2021/06/19 02:36:25;;;;;;;12.50;10.52;;;;;;;21.54;63.63;96138.28;5074144;28;20049;-80
2021/06/19 02:38:51;;;;;;;13.98;10.55;;;;;;;21.53;63.61;96147.78;5074336;28;20043;-80
2021/06/19 02:41:18;;;;;;;11.90;10.13;;;;;;;21.55;63.80;96156.47;5073896;28;20048;-80
2021/06/19 02:43:44;;;;;;;14.18;10.07;;;;;;;21.50;63.90;96148.56;5074249;28;20051;-80
2021/06/19 02:46:11;;;;;;;12.90;10.88;;;;;;;21.49;63.88;96144.22;5073960;28;20131;-79
2021/06/19 02:48:37;;;;;;;12.07;9.65;;;;;;;21.48;63.93;96150.16;5074027;28;20045;-78
2021/06/19 02:51:05;;;;;;;13.30;10.32;;;;;;;21.48;64.14;96153.72;5073716;28;20052;-78
2021/06/19 02:53:32;;;;;;;15.70;11.02;;;;;;;21.49;64.27;96149.75;5074009;28;20522;-79
2021/06/19 02:55:58;;;;;;;16.17;10.35;;;;;;;21.57;64.23;96150.56;5074149;28;20052;-79
2021/06/19 02:58:25;;;;;;;15.57;10.48;;;;;;;21.61;64.33;96146.63;5073776;28;20048;-79
2021/06/19 03:00:51;;;;;;;14.23;10.55;;;;;;;21.61;64.16;96145.78;5073752;28;20094;-78
2021/06/19 03:03:18;;;;;;;15.52;10.27;;;;;;;21.65;64.35;96148.56;5073548;28;20449;-78
2021/06/19 03:05:44;;;;;;;15.40;10.38;;;;;;;21.67;64.35;96154.53;5073891;28;20415;-78
2021/06/19 03:08:12;;;;;;;12.35;10.82;;;;;;;21.66;64.29;96150.94;5073445;28;20048;-78
2021/06/19 03:10:40;;;;;;;14.55;9.93;;;;;;;21.62;64.07;96152.94;5073810;28;20044;-78
2021/06/19 03:13:07;;;;;;;13.02;9.82;;;;;;;21.59;64.20;96139.88;5073425;28;20045;-79
2021/06/19 03:15:34;;;;;;;16.50;10.52;;;;;;;21.63;65.03;96144.22;5073811;28;20048;-80
2021/06/19 03:18:01;;;;;;;12.40;10.95;;;;;;;21.64;65.22;96147.78;5073700;28;20048;-77
2021/06/19 03:20:27;;;;;;;14.55;10.45;;;;;;;21.65;64.98;96159.66;5073331;28;20037;-77
2021/06/19 03:22:56;;;;;;;15.50;11.10;;;;;;;21.66;65.24;96162.03;5073622;28;20052;-81
2021/06/19 03:25:25;;;;;;;14.00;11.07;;;;;;;21.67;65.29;96160.88;5072990;28;20048;-80
2021/06/19 03:27:52;;;;;;;13.70;10.38;;;;;;;21.65;65.15;96162.44;5073385;28;20040;-79
2021/06/19 03:30:21;;;;;;;14.10;11.95;;;;;;;21.65;65.24;96156.88;5072893;28;20074;-79
2021/06/19 03:32:48;;;;;;;12.65;10.55;;;;;;;21.70;65.49;96164.81;5073373;28;20389;-81
2021/06/19 03:35:15;;;;;;;11.50;10.13;;;;;;;21.69;65.39;96171.53;5072887;28;20044;-81
2021/06/19 03:37:44;;;;;;;15.15;10.38;;;;;;;21.74;65.30;96176.69;5073282;28;20040;-81
2021/06/19 03:40:11;;;;;;;11.65;10.23;;;;;;;21.76;65.15;96175.09;5072962;28;20514;-80
2021/06/19 03:42:40;;;;;;;14.02;10.95;;;;;;;21.78;65.12;96183.03;5073224;28;20044;-80
2021/06/19 03:45:11;;;;;;;15.60;10.73;;;;;;;21.76;65.41;96183.41;5072659;28;20048;-80
2021/06/19 03:47:38;;;;;;;14.65;10.75;;;;;;;21.78;65.74;96185.81;5072936;28;20384;-80
2021/06/19 03:50:06;;;;;;;13.50;10.43;;;;;;;21.79;65.46;96182.63;5072622;28;20056;-78
2021/06/19 03:52:33;;;;;;;15.05;10.98;;;;;;;21.79;65.69;96185.41;5073097;28;20048;-79
2021/06/19 03:54:59;;;;;;;13.52;10.07;;;;;;;21.77;65.63;96187.78;5072917;28;20040;-79
2021/06/19 03:57:27;;;;;;;15.32;10.43;;;;;;;21.75;65.61;96181.06;5072650;28;20048;-80
2021/06/19 03:59:55;;;;;;;13.38;10.60;;;;;;;21.75;65.59;96183.81;5072904;28;20056;-79
2021/06/19 04:02:23;;;;;;;12.95;10.70;;;;;;;21.75;65.76;96194.91;5072514;28;20479;-79
2021/06/19 04:04:51;;;;;;;11.55;9.70;;;;;;;21.78;66.05;96199.66;5072707;28;20052;-79
2021/06/19 04:07:18;;;;;;;15.52;10.52;;;;;;;21.78;66.18;96199.66;5072182;28;20051;-80
2021/06/19 04:09:46;;;;;;;12.88;10.20;;;;;;;21.80;66.32;96198.06;5072576;28;20404;-80
2021/06/19 04:12:13;;;;;;;16.33;11.40;;;;;;;21.82;65.80;96194.91;5072167;28;20044;-80
2021/06/19 04:14:39;;;;;;;13.25;10.55;;;;;;;21.81;66.29;96199.66;5072654;28;20047;-80
2021/06/19 04:17:08;;;;;;;14.02;10.73;;;;;;;21.82;66.78;96201.25;5071848;28;20052;-79
2021/06/19 04:19:34;;;;;;;16.58;11.40;;;;;;;21.86;67.16;96198.47;5072557;28;20044;-79
2021/06/19 04:22:03;;;;;;;16.15;10.50;;;;;;;21.86;67.20;96190.16;5072439;28;20051;-80
2021/06/19 04:24:29;;;;;;;13.65;11.50;;;;;;;21.86;66.67;96195.69;5072206;28;20491;-80
2021/06/19 04:26:56;;;;;;;14.63;11.27;;;;;;;21.92;66.42;96204.41;5071871;28;20048;-78
2021/06/19 04:29:22;;;;;;;15.52;10.70;;;;;;;21.95;65.57;96207.19;5071324;28;20052;-79
2021/06/19 04:31:49;;;;;;;15.07;10.52;;;;;;;21.96;65.39;96203.22;5072341;28;20051;-80
2021/06/19 04:34:16;;;;;;;12.20;10.80;;;;;;;21.94;65.78;96213.94;5071621;28;20127;-80
2021/06/19 04:36:43;;;;;;;12.15;10.00;;;;;;;21.99;66.37;96215.53;5072205;28;20037;-79
2021/06/19 04:39:09;;;;;;;14.55;11.07;;;;;;;22.03;65.74;96225.44;5071543;28;20440;-79
2021/06/19 04:41:46;;;;;;;19.08;11.15;;;;;;;22.07;65.83;96226.19;5072033;28;20045;-80
2021/06/19 04:44:30;;;;;;;12.57;11.18;;;;;;;22.03;65.86;96228.19;5071554;28;20072;-80
2021/06/19 04:46:57;;;;;;;14.82;11.38;;;;;;;21.96;66.36;96233.72;5071762;28;20045;-79
2021/06/19 04:49:24;;;;;;;14.35;11.48;;;;;;;21.92;66.84;96230.16;5071369;28;20051;-79
2021/06/19 04:51:51;;;;;;;17.70;12.10;;;;;;;21.89;67.11;96228.19;5071897;28;20051;-79
2021/06/19 04:54:19;;;;;;;17.63;11.57;;;;;;;21.88;67.64;96232.16;5071188;28;20052;-79
2021/06/19 04:56:46;;;;;;;16.40;11.55;;;;;;;21.87;67.39;96242.44;5070912;28;20052;-80
2021/06/19 04:59:13;;;;;;;16.70;10.98;;;;;;;21.92;67.79;96232.94;5081227;28;20059;-79
2021/06/19 05:01:39;;;;;;;12.90;11.48;;;;;;;21.94;67.84;96252.75;5071610;28;20040;-80
2021/06/19 05:04:06;;;;;;;16.58;12.45;;;;;;;21.96;68.00;96244.03;5071091;28;20055;-79
2021/06/19 05:06:35;;;;;;;14.82;11.23;;;;;;;21.98;68.28;96248.00;5071709;28;20040;-79
2021/06/19 05:09:02;;;;;;;14.40;11.82;;;;;;;22.00;68.78;96244.84;5071473;28;20056;-79
2021/06/19 05:11:29;;;;;;;17.75;13.05;;;;;;;22.04;68.40;96251.97;5071232;28;20064;-79
2021/06/19 05:13:55;;;;;;;19.52;13.13;;;;;;;22.09;68.69;96254.34;5071311;28;20523;-79
2021/06/19 05:16:22;;;;;;;17.95;12.73;;;;;;;22.17;68.48;96265.47;5071178;28;20087;-79
2021/06/19 05:18:48;;;;;;;18.60;11.90;;;;;;;22.22;67.62;96262.28;5071511;28;20051;-81
2021/06/19 05:21:14;;;;;;;20.65;12.23;;;;;;;22.25;66.57;96262.31;5070902;28;20495;-79
2021/06/19 05:23:42;;;;;;;18.55;11.90;;;;;;;22.25;66.76;96261.50;5071186;28;20372;-79
2021/06/19 05:26:09;;;;;;;18.65;11.70;;;;;;;22.30;67.01;96264.69;5070840;28;20065;-79
2021/06/19 05:28:35;;;;;;;17.17;11.70;;;;;;;22.34;66.88;96268.25;5081366;28;20048;-79
2021/06/19 05:31:03;;;;;;;13.40;10.60;;;;;;;22.40;65.85;96265.88;5070743;28;20041;-75
2021/06/19 05:33:29;;;;;;;16.45;11.07;;;;;;;22.48;65.73;96267.44;5071190;28;20068;-80
2021/06/19 05:35:56;;;;;;;15.38;11.38;;;;;;;22.54;65.07;96270.59;5071329;28;20045;-81
2021/06/19 05:38:22;;;;;;;14.88;11.13;;;;;;;22.59;64.53;96271.00;5070564;28;20045;-79
2021/06/19 05:40:50;;;;;;;19.15;11.48;;;;;;;22.63;64.47;96266.22;5071196;28;20044;-79
2021/06/19 05:43:17;;;;;;;17.20;11.30;;;;;;;22.69;63.77;96277.72;5070569;28;20044;-78
2021/06/19 05:45:43;;;;;;;13.38;10.63;;;;;;;22.72;63.48;96274.16;5071014;28;20040;-81
2021/06/19 05:48:10;;;;;;;16.58;10.18;;;;;;;22.74;63.55;96273.75;5070351;28;20052;-79
2021/06/19 05:50:36;;;;;;;15.85;10.60;;;;;;;22.73;64.36;96274.94;5070966;28;20044;-80
2021/06/19 05:53:03;;;;;;;17.23;11.18;;;;;;;22.79;64.13;96276.13;5070628;28;20399;-80
2021/06/19 05:55:30;;;;;;;15.00;10.75;;;;;;;22.86;63.73;96274.09;5070938;28;20512;-80
2021/06/19 05:57:58;;;;;;;18.67;10.95;;;;;;;22.97;63.16;96273.31;5078640;28;20044;-79
2021/06/19 06:00:24;;;;;;;15.60;10.82;;;;;;;23.03;63.65;96277.28;5072186;28;20044;-81
2021/06/19 06:02:51;;;;;;;15.10;9.98;;;;;;;23.11;62.78;96274.06;5070905;28;20044;-80
2021/06/19 06:05:17;;;;;;;16.63;11.00;;;;;;;23.23;62.70;96283.97;5070391;28;20051;-79
2021/06/19 06:07:43;;;;;;;13.07;10.45;;;;;;;23.34;61.80;96281.16;5070836;28;20041;-79
2021/06/19 06:10:11;;;;;;;14.90;10.85;;;;;;;23.44;61.73;96274.78;5073137;28;20040;-80
2021/06/19 06:12:38;;;;;;;16.27;10.02;;;;;;;23.55;61.63;96269.94;5074942;28;20044;-79
2021/06/19 06:15:08;;;;;;;14.90;9.90;;;;;;;23.62;62.04;96274.66;5074517;28;20151;-79
2021/06/19 06:17:34;;;;;;;16.38;9.82;;;;;;;23.75;61.41;96273.03;5074757;28;20051;-80
2021/06/19 06:20:01;;;;;;;13.52;9.68;;;;;;;23.88;61.48;96284.47;5074893;28;20048;-80
2021/06/19 06:22:27;;;;;;;15.80;9.20;;;;;;;23.93;60.27;96278.50;5074464;28;20403;-80
2021/06/19 06:24:54;;;;;;;17.52;9.30;;;;;;;23.95;59.13;96281.66;5074604;28;20051;-81
2021/06/19 06:27:20;;;;;;;14.80;9.23;;;;;;;23.94;59.49;96285.63;5077094;28;20074;-79
2021/06/19 06:29:47;;;;;;;13.95;9.27;;;;;;;23.95;59.37;96287.22;5081540;28;20052;-80
2021/06/19 06:32:14;;;;;;;16.40;8.90;;;;;;;23.96;59.41;96291.56;5074108;28;20499;-80
2021/06/19 06:34:41;;;;;;;14.60;8.50;;;;;;;23.96;59.24;96288.78;5074511;28;20037;-79
2021/06/19 06:37:07;;;;;;;19.38;9.00;;;;;;;23.95;58.73;96292.78;5073760;28;20049;-82
2021/06/19 06:39:34;;;;;;;9.88;8.40;;;;;;;23.98;58.47;96308.66;5074368;28;20123;-79
2021/06/19 06:42:01;;;;;;;18.55;8.18;;;;;;;23.96;58.92;96311.03;5074488;28;20044;-80
2021/06/19 06:44:27;;;;;;;17.80;8.45;;;;;;;23.97;59.72;96306.28;5073755;28;20040;-79
2021/06/19 06:46:54;;;;;;;14.05;8.73;;;;;;;24.03;58.45;96311.00;5073986;28;20057;-80
2021/06/19 06:49:22;;;;;;;12.07;8.70;;;;;;;24.03;59.75;96311.00;5073711;28;20048;-80
2021/06/19 06:51:49;;;;;;;17.48;9.02;;;;;;;24.14;57.61;96317.28;5074124;28;20051;-80
2021/06/19 06:54:15;;;;;;;11.98;8.45;;;;;;;24.11;58.36;96325.66;5073651;28;20059;-81
2021/06/19 06:56:42;;;;;;;14.55;8.27;;;;;;;24.15;58.58;96327.22;5074134;28;20045;-80
2021/06/19 06:59:08;;;;;;;15.80;8.60;;;;;;;24.21;57.12;96322.78;5083515;28;20487;-80
2021/06/19 07:01:35;;;;;;;14.57;8.10;;;;;;;24.26;58.53;96318.00;5073853;28;20044;-81
2021/06/19 07:04:01;;;;;;;16.10;8.15;;;;;;;24.31;56.96;96325.91;5073784;28;20055;-80
2021/06/19 07:06:29;;;;;;;10.73;8.30;;;;;;;24.32;57.67;96321.94;5073602;28;20044;-79
2021/06/19 07:08:56;;;;;;;16.42;8.23;;;;;;;24.27;57.88;96325.16;5073637;28;20059;-80
2021/06/19 07:11:22;;;;;;;12.00;8.07;;;;;;;24.27;57.41;96328.72;5073326;28;20500;-80
2021/06/19 07:13:49;;;;;;;23.80;8.15;;;;;;;24.30;58.44;96321.56;5073740;28;20044;-79
2021/06/19 07:16:15;;;;;;;11.32;7.70;;;;;;;24.35;57.88;96315.56;5073276;28;20040;-80
2021/06/19 07:18:42;;;;;;;12.90;8.68;;;;;;;24.44;59.36;96318.72;5073554;28;20045;-81
2021/06/19 07:21:08;;;;;;;13.05;8.00;;;;;;;24.57;58.09;96327.34;5072480;28;20050;-79
2021/06/19 07:23:36;;;;;;;18.35;7.85;;;;;;;24.65;56.68;96323.31;5073670;28;20101;-80
2021/06/19 07:26:03;;;;;;;12.95;8.15;;;;;;;24.73;57.30;96324.81;5073251;28;20049;-79
2021/06/19 07:28:29;;;;;;;14.23;7.65;;;;;;;24.73;56.57;96320.03;5083566;28;20101;-80
2021/06/19 07:30:56;;;;;;;13.18;7.68;;;;;;;24.86;56.80;96325.13;5073504;28;20045;-80
2021/06/19 07:33:22;;;;;;;11.13;7.47;;;;;;;24.95;56.33;96325.41;5072783;28;20047;-80
2021/06/19 07:35:49;;;;;;;13.65;7.78;;;;;;;25.06;55.84;96320.56;5073168;28;20048;-79
2021/06/19 07:38:15;;;;;;;11.75;7.07;;;;;;;25.20;55.38;96317.63;5072816;28;20049;-78
2021/06/19 07:40:43;;;;;;;14.77;7.43;;;;;;;25.31;56.13;96325.84;5073298;28;20045;-79
2021/06/19 07:43:10;;;;;;;12.30;7.28;;;;;;;25.44;54.88;96318.56;5072873;28;20044;-79
2021/06/19 07:45:37;;;;;;;13.25;7.70;;;;;;;25.58;55.44;96314.00;5072962;28;20040;-80
2021/06/19 07:48:09;;;;;;;10.30;7.45;;;;;;;25.71;55.72;96307.47;5072066;28;20055;-79
2021/06/19 07:50:38;;;;;;;13.85;7.00;;;;;;;25.93;54.47;96315.56;5073017;28;20101;-80
2021/06/19 07:53:05;;;;;;;14.18;7.30;;;;;;;26.16;55.75;96312.84;5072516;28;20143;-80
2021/06/19 07:55:31;;;;;;;9.80;6.82;;;;;;;26.42;56.06;96318.88;5072983;28;20060;-82
2021/06/19 07:57:59;;;;;;;13.05;7.22;;;;;;;26.65;52.38;96316.09;5080566;28;20056;-80
2021/06/19 08:00:26;;;;;;;11.90;7.20;;;;;;;26.87;53.52;96307.34;5073845;28;20044;-80
2021/06/19 08:02:53;;;;;;;15.25;7.28;;;;;;;27.01;51.15;96298.72;5072515;28;20296;-78
2021/06/19 08:05:22;;;;;;;14.65;7.75;;;;;;;27.08;51.48;96303.41;5072093;28;20048;-79
2021/06/19 08:07:48;;;;;;;13.00;6.93;;;;;;;27.06;50.99;96312.97;5072617;28;20051;-79
2021/06/19 08:10:15;;;;;;;13.70;7.03;;;;;;;27.14;51.04;96313.66;5073637;28;20048;-78
2021/06/19 08:12:42;;;;;;;10.35;6.20;;;;;;;27.23;51.05;96321.50;5073301;28;20037;-78
2021/06/19 08:15:11;;;;;;;11.30;6.60;;;;;;;27.18;48.58;96325.56;5072085;28;20049;-80
2021/06/19 08:17:38;;;;;;;9.75;6.38;;;;;;;27.19;49.55;96318.75;5072470;28;20045;-78
2021/06/19 08:20:05;;;;;;;13.32;6.90;;;;;;;27.26;50.15;96320.66;5072180;28;20049;-78
2021/06/19 08:22:32;;;;;;;11.68;6.68;;;;;;;27.26;50.42;96315.06;5072334;28;20043;-79
2021/06/19 08:25:00;;;;;;;23.10;8.65;;;;;;;27.20;48.98;96317.56;5072376;28;20045;-79
2021/06/19 08:27:27;;;;;;;11.38;6.63;;;;;;;27.10;49.55;96309.38;5071952;28;20398;-80
2021/06/19 08:29:54;;;;;;;12.35;6.47;;;;;;;26.95;50.01;96320.00;5072338;28;20048;-79
2021/06/19 08:32:22;;;;;;;13.27;7.00;;;;;;;26.94;49.70;96304.44;5070606;28;20055;-79
2021/06/19 08:34:48;;;;;;;12.07;6.80;;;;;;;26.86;49.31;96300.97;5072221;28;20040;-79
2021/06/19 08:37:15;;;;;;;15.45;6.72;;;;;;;26.75;49.90;96308.75;5071659;28;20090;-79
2021/06/19 08:39:42;;;;;;;10.68;6.85;;;;;;;26.66;51.61;96312.09;5072160;28;20057;-79
2021/06/19 08:42:09;;;;;;;12.68;6.68;;;;;;;26.58;51.66;96307.84;5071745;28;20057;-79
2021/06/19 08:44:36;;;;;;;13.10;7.57;;;;;;;26.56;51.87;96307.47;5071943;28;20045;-78
2021/06/19 08:47:03;;;;;;;15.75;7.53;;;;;;;26.54;52.73;96307.91;5070998;28;20094;-78
2021/06/19 08:49:34;;;;;;;17.30;7.00;;;;;;;26.54;53.61;96304.31;5071782;28;20052;-79
2021/06/19 08:52:01;;;;;;;13.10;6.78;;;;;;;26.57;52.49;96303.44;5071731;28;20045;-79
2021/06/19 08:54:38;;;;;;;13.43;7.10;;;;;;;26.73;53.69;96300.03;5071339;28;20044;-78
2021/06/19 08:57:06;;;;;;;11.27;6.93;;;;;;;27.10;52.65;96285.00;5071157;28;20499;-78
2021/06/19 08:59:36;;;;;;;15.73;7.60;;;;;;;27.60;49.49;96289.59;5071599;28;20045;-80
2021/06/19 09:02:03;;;;;;;15.50;7.30;;;;;;;27.88;48.33;96281.84;5071087;28;20472;-78
2021/06/19 09:04:31;;;;;;;11.20;7.35;;;;;;;27.93;48.13;96284.13;5071419;28;20049;-78
2021/06/19 09:06:57;;;;;;;16.45;7.45;;;;;;;27.89;49.37;96273.03;5071453;28;20045;-78
2021/06/19 09:09:24;;;;;;;13.40;7.43;;;;;;;27.96;49.40;96280.47;5071122;28;20426;-79
2021/06/19 09:11:52;;;;;;;12.45;7.00;;;;;;;28.07;49.70;96278.19;5071376;28;20040;-79
2021/06/19 09:14:20;;;;;;;13.35;7.65;;;;;;;28.02;48.21;96273.91;5071183;28;20051;-78
2021/06/19 09:16:58;;;;;;;11.48;7.38;;;;;;;27.98;50.06;96278.00;5071498;28;20051;-79
2021/06/19 09:19:27;;;;;;;13.52;7.57;;;;;;;27.96;50.22;96278.44;5070734;28;20067;-79
2021/06/19 09:22:13;;;;;;;13.63;7.85;;;;;;;28.05;47.27;96275.06;5071464;28;20045;-79
2021/06/19 09:24:48;;;;;;;10.88;7.68;;;;;;;28.04;49.10;96267.91;5071299;28;20032;-79
2021/06/19 09:27:35;;;;;;;14.68;7.80;;;;;;;28.09;49.21;96267.38;5070932;28;20068;-78
2021/06/19 09:30:10;;;;;;;11.80;6.78;;;;;;;28.24;50.61;96277.03;5071225;28;20040;-79
2021/06/19 09:32:42;;;;;;;14.82;7.47;;;;;;;28.34;48.94;96278.00;5071304;28;20051;-79
2021/06/19 09:35:16;;;;;;;13.10;7.90;;;;;;;28.37;49.64;96273.56;5070960;28;20045;-79
2021/06/19 09:37:45;;;;;;;13.55;7.35;;;;;;;28.48;50.72;96269.25;5071089;28;20040;-78
2021/06/19 09:40:27;;;;;;;13.30;7.70;;;;;;;28.53;48.32;96268.72;5070676;28;20048;-79
2021/06/19 09:43:05;;;;;;;11.93;7.20;;;;;;;28.61;47.89;96266.56;5071147;28;20079;-78
2021/06/19 09:45:31;;;;;;;13.00;7.28;;;;;;;28.78;47.13;96273.72;5071069;28;20400;-78
2021/06/19 09:47:57;;;;;;;12.05;7.20;;;;;;;28.98;48.42;96264.44;5070853;28;20051;-78
2021/06/19 09:50:24;;;;;;;13.13;7.00;;;;;;;29.24;50.50;96268.13;5070597;28;20442;-78
2021/06/19 09:52:52;;;;;;;11.38;7.47;;;;;;;29.48;45.74;96260.22;5070941;28;20040;-79
2021/06/19 09:55:19;;;;;;;15.30;6.75;;;;;;;29.65;45.66;96264.53;5070732;28;20048;-80
2021/06/19 09:57:47;;;;;;;15.07;7.30;;;;;;;29.87;43.96;96253.47;5070929;28;20048;-81
2021/06/19 10:00:16;;;;;;;13.52;7.03;;;;;;;29.96;45.42;96255.59;5070443;28;20514;-80
2021/06/19 10:02:43;;;;;;;12.45;7.15;;;;;;;30.12;44.78;96247.09;5070859;28;20044;-79
2021/06/19 10:05:10;;;;;;;10.70;6.43;;;;;;;30.30;45.01;96247.31;5070648;28;20049;-80
2021/06/19 10:07:37;;;;;;;9.05;6.78;;;;;;;30.45;44.18;96247.66;5070803;28;20688;-79
2021/06/19 10:10:07;;;;;;;13.52;7.55;;;;;;;30.51;43.23;96245.84;5070531;28;20049;-79
2021/06/19 10:12:36;;;;;;;10.50;7.03;;;;;;;30.45;41.19;96236.41;5070890;28;20051;-79
2021/06/19 10:15:04;;;;;;;12.27;7.32;;;;;;;30.35;44.72;96241.16;5070417;28;20055;-80
2021/06/19 10:17:33;;;;;;;12.80;7.40;;;;;;;30.27;42.04;96245.41;5070927;28;20049;-80
2021/06/19 10:20:01;;;;;;;14.38;7.22;;;;;;;30.08;41.30;96238.00;5070771;28;20048;-79
2021/06/19 10:22:29;;;;;;;9.15;6.47;;;;;;;29.85;41.98;96242.69;5090772;28;20044;-80
2021/06/19 10:24:58;;;;;;;16.00;7.18;;;;;;;29.79;44.38;96241.66;5090956;28;20052;-79
2021/06/19 10:27:29;;;;;;;13.65;6.35;;;;;;;29.94;44.13;96236.41;5093757;28;20065;-79
2021/06/19 10:29:57;;;;;;;10.43;6.35;;;;;;;30.13;41.33;96234.66;5096792;28;20522;-80
2021/06/19 10:32:44;;;;;;;11.80;6.70;;;;;;;30.03;40.15;96221.72;5090100;28;20520;-79
2021/06/19 10:35:14;;;;;;;12.25;7.18;;;;;;;29.86;40.94;96219.03;5090369;28;20079;-79
2021/06/19 10:37:41;;;;;;;14.00;6.80;;;;;;;29.87;42.32;96219.81;5090807;28;20042;-80
2021/06/19 10:40:22;;;;;;;17.20;7.35;;;;;;;29.99;41.20;96221.03;5090286;28;20050;-80
2021/06/19 10:42:52;;;;;;;12.77;6.60;;;;;;;30.05;42.39;96219.22;5090618;28;20044;-80
2021/06/19 10:45:22;;;;;;;11.40;6.90;;;;;;;30.20;41.83;96220.38;5090306;28;20047;-79
2021/06/19 10:48:00;;;;;;;11.20;7.05;;;;;;;30.31;40.96;96220.81;5090696;28;20047;-79
2021/06/19 10:50:27;;;;;;;11.43;6.78;;;;;;;30.34;39.84;96219.91;5090301;28;20055;-79
2021/06/19 10:53:02;;;;;;;12.93;6.43;;;;;;;30.30;37.84;96216.44;5090568;28;20051;-80
2021/06/19 10:55:29;;;;;;;11.07;6.25;;;;;;;30.34;42.18;96208.69;5091799;28;20055;-80
2021/06/19 10:58:18;;;;;;;12.27;6.78;;;;;;;30.48;37.33;96213.00;5093983;28;20063;-79
2021/06/19 11:00:46;;;;;;;10.98;6.55;;;;;;;30.49;39.25;96203.38;5073812;28;20072;-78
2021/06/19 11:03:13;;;;;;;11.10;6.47;;;;;;;30.55;40.05;96197.97;5073163;28;20045;-79
2021/06/19 11:06:20;;;;;;;9.10;5.93;;;;;;;30.73;39.77;96194.56;5073845;28;20048;-79
2021/06/19 11:09:10;;;;;;;9.63;5.47;;;;;;;30.65;35.84;96196.81;5073637;28;20044;-80
2021/06/19 11:11:51;;;;;;;11.43;6.03;;;;;;;30.62;35.75;96180.84;5070319;28;20041;-79
2021/06/19 11:14:54;;;;;;;12.55;6.82;;;;;;;30.62;39.09;96183.66;5073207;28;20044;-79
2021/06/19 11:17:43;;;;;;;11.48;6.38;;;;;;;30.70;39.73;96168.16;5073123;28;20052;-80
2021/06/19 11:20:40;;;;;;;7.72;5.80;;;;;;;30.78;38.38;96163.06;5073071;28;20071;-80
2021/06/19 11:23:07;;;;;;;10.85;6.20;;;;;;;30.86;39.80;96164.38;5073012;28;20074;-80
2021/06/19 11:25:41;;;;;;;13.55;6.40;;;;;;;30.89;38.91;96147.38;5073678;28;20094;-79
2021/06/19 11:28:09;;;;;;;14.00;6.95;;;;;;;30.87;40.96;96157.50;5092243;28;20051;-80